createdAt,value
2023-02-17T00:00:54.744Z,5.13
2023-02-17T00:03:22.782Z,5.65
2023-02-17T00:05:51.141Z,4.10
2023-02-17T00:08:18.859Z,4.45
2023-02-17T00:10:56.577Z,4.85
2023-02-17T00:13:24.110Z,5.15
2023-02-17T00:15:51.649Z,4.75
2023-02-17T00:18:19.295Z,4.60
2023-02-17T00:20:46.772Z,4.60
2023-02-17T00:23:14.371Z,5.97
2023-02-17T00:25:42.249Z,4.25
2023-02-17T00:28:11.121Z,3.97
2023-02-17T00:30:39.341Z,4.95
2023-02-17T00:33:07.288Z,4.07
2023-02-17T00:35:34.807Z,4.78
2023-02-17T00:38:02.319Z,4.03
2023-02-17T00:40:30.034Z,5.00
2023-02-17T00:42:58.103Z,4.28
2023-02-17T00:45:26.869Z,4.53
2023-02-17T00:47:54.307Z,3.85
2023-02-17T00:50:21.746Z,5.25
2023-02-17T00:52:49.203Z,4.85
2023-02-17T00:55:16.698Z,4.10
2023-02-17T00:57:44.161Z,3.90
2023-02-17T01:00:12.746Z,4.38
2023-02-17T01:02:41.587Z,3.95
2023-02-17T01:05:09.047Z,3.60
2023-02-17T01:07:37.204Z,4.57
2023-02-17T01:10:05.241Z,2.72
2023-02-17T01:12:32.962Z,3.63
2023-02-17T01:15:00.477Z,3.88
2023-02-17T01:17:28.567Z,3.72
2023-02-17T01:19:58.029Z,3.83
2023-02-17T01:22:25.773Z,3.80
2023-02-17T01:24:53.231Z,4.15
2023-02-17T01:27:20.687Z,4.00
2023-02-17T01:29:48.129Z,4.47
2023-02-17T01:32:15.574Z,4.10
2023-02-17T01:34:43.185Z,3.38
2023-02-17T01:37:12.032Z,3.28
2023-02-17T01:39:40.178Z,4.32
2023-02-17T01:42:07.603Z,3.85
2023-02-17T01:44:35.062Z,3.83
2023-02-17T01:47:02.527Z,4.32
2023-02-17T01:49:33.895Z,3.15
2023-02-17T01:52:07.587Z,3.00
2023-02-17T01:54:41.199Z,3.40
2023-02-17T01:57:08.844Z,2.70
2023-02-17T01:59:37.584Z,3.00
2023-02-17T02:02:07.559Z,3.40
2023-02-17T02:04:38.860Z,3.67
2023-02-17T02:07:11.307Z,4.00
2023-02-17T02:09:43.882Z,4.30
2023-02-17T02:12:19.290Z,3.55
2023-02-17T02:14:47.043Z,3.20
2023-02-17T02:17:25.182Z,3.38
2023-02-17T02:20:16.031Z,3.92
2023-02-17T02:23:17.596Z,3.90
2023-02-17T02:26:11.776Z,3.63
2023-02-17T02:28:53.745Z,5.05
2023-02-17T02:31:30.731Z,3.85
2023-02-17T02:34:04.218Z,3.88
2023-02-17T02:36:35.778Z,4.05
2023-02-17T02:39:08.844Z,3.70
2023-02-17T02:41:38.843Z,3.78
2023-02-17T02:44:07.808Z,4.35
2023-02-17T02:46:35.518Z,3.55
2023-02-17T02:49:05.481Z,3.58
2023-02-17T02:51:46.740Z,4.30
2023-02-17T02:54:42.428Z,3.70
2023-02-17T02:57:21.454Z,3.97
2023-02-17T03:00:00.921Z,3.85
2023-02-17T03:02:35.900Z,4.05
2023-02-17T03:05:12.152Z,4.47
2023-02-17T03:07:43.815Z,3.55
2023-02-17T03:10:11.930Z,4.25
2023-02-17T03:12:40.147Z,3.27
2023-02-17T03:15:15.314Z,3.53
2023-02-17T03:17:42.745Z,3.42
2023-02-17T03:20:13.536Z,2.90
2023-02-17T03:22:44.617Z,3.28
2023-02-17T03:25:12.301Z,3.00
2023-02-17T03:27:39.723Z,3.35
2023-02-17T03:30:09.441Z,3.28
2023-02-17T03:32:37.514Z,3.50
2023-02-17T03:35:05.542Z,3.70
2023-02-17T03:37:34.361Z,3.80
2023-02-17T03:40:01.783Z,2.75
2023-02-17T03:42:29.429Z,3.10
2023-02-17T03:44:57.057Z,3.20
2023-02-17T03:47:24.492Z,3.10
2023-02-17T03:49:52.059Z,3.55
2023-02-17T03:52:19.844Z,2.35
2023-02-17T03:54:48.648Z,3.30
2023-02-17T03:57:16.114Z,2.78
2023-02-17T03:59:43.526Z,3.80
2023-02-17T04:02:11.081Z,3.88
2023-02-17T04:04:39.137Z,3.25
2023-02-17T04:07:06.790Z,3.30
2023-02-17T04:09:34.324Z,3.50
2023-02-17T04:12:03.226Z,3.38
2023-02-17T04:14:31.010Z,3.97
2023-02-17T04:16:58.421Z,3.35
2023-02-17T04:19:25.988Z,3.50
2023-02-17T04:21:53.601Z,3.35
2023-02-17T04:24:21.969Z,3.08
2023-02-17T04:26:49.425Z,3.83
2023-02-17T04:29:18.188Z,3.03
2023-02-17T04:31:45.694Z,2.90
2023-02-17T04:34:13.248Z,3.38
2023-02-17T04:36:41.165Z,3.13
2023-02-17T04:39:09.450Z,3.45
2023-02-17T04:41:36.890Z,3.10
2023-02-17T04:44:04.306Z,4.57
2023-02-17T04:46:33.065Z,2.65
2023-02-17T04:49:00.503Z,2.97
2023-02-17T04:51:28.072Z,3.33
2023-02-17T04:53:55.680Z,2.78
2023-02-17T04:56:23.214Z,4.10
2023-02-17T04:58:50.712Z,3.17
2023-02-17T05:01:18.141Z,3.38
2023-02-17T05:03:46.959Z,4.72
2023-02-17T05:06:14.406Z,3.63
2023-02-17T05:08:41.889Z,3.80
2023-02-17T05:11:09.354Z,3.47
2023-02-17T05:13:36.829Z,3.67
2023-02-17T05:16:04.836Z,3.22
2023-02-17T05:18:32.449Z,4.30
2023-02-17T05:21:01.240Z,4.00
2023-02-17T05:23:28.778Z,3.20
2023-02-17T05:25:56.267Z,3.55
2023-02-17T05:28:23.725Z,3.13
2023-02-17T05:30:51.345Z,3.03
2023-02-17T05:33:18.959Z,4.10
2023-02-17T05:35:46.413Z,3.50
2023-02-17T05:38:15.251Z,3.58
2023-02-17T05:40:42.738Z,3.28
2023-02-17T05:43:10.172Z,3.53
2023-02-17T05:45:37.801Z,3.25
2023-02-17T05:48:05.775Z,3.67
2023-02-17T05:50:33.387Z,4.20
2023-02-17T05:53:00.826Z,4.03
2023-02-17T05:55:29.765Z,5.22
2023-02-17T05:57:57.304Z,3.87
2023-02-17T06:00:25.302Z,4.10
2023-02-17T06:02:52.905Z,4.03
2023-02-17T06:05:20.619Z,4.15
2023-02-17T06:07:48.516Z,3.80
2023-02-17T06:10:16.289Z,3.80
2023-02-17T06:12:45.389Z,3.55
2023-02-17T06:15:12.996Z,3.47
2023-02-17T06:17:40.568Z,3.58
2023-02-17T06:20:09.484Z,4.03
2023-02-17T06:22:37.035Z,4.22
2023-02-17T06:25:04.807Z,4.65
2023-02-17T06:27:32.456Z,3.97
2023-02-17T06:30:01.308Z,4.68
2023-02-17T06:32:28.950Z,5.15
2023-02-17T06:34:56.362Z,4.40
2023-02-17T06:37:23.885Z,4.45
2023-02-17T06:39:51.336Z,3.92
2023-02-17T06:42:18.843Z,4.28
2023-02-17T06:44:46.480Z,3.63
2023-02-17T06:47:15.307Z,3.90
2023-02-17T06:49:42.771Z,3.53
2023-02-17T06:52:10.230Z,4.43
2023-02-17T06:54:37.742Z,4.10
2023-02-17T06:57:05.190Z,3.45
2023-02-17T06:59:32.809Z,4.13
2023-02-17T07:02:02.454Z,4.50
2023-02-17T07:04:39.634Z,3.30
2023-02-17T07:07:34.122Z,4.38
2023-02-17T07:10:00.596Z,2.53
2023-02-17T07:12:29.544Z,3.17
2023-02-17T07:14:56.987Z,3.47
2023-02-17T07:17:24.435Z,2.50
2023-02-17T07:19:53.219Z,2.00
2023-02-17T07:22:21.456Z,2.22
2023-02-17T07:24:48.872Z,3.05
2023-02-17T07:27:16.279Z,2.65
2023-02-17T07:29:43.697Z,2.13
2023-02-17T07:32:11.878Z,2.88
2023-02-17T07:34:47.406Z,2.50
2023-02-17T07:37:17.270Z,2.20
2023-02-17T07:39:46.122Z,2.65
2023-02-17T07:42:14.384Z,3.50
2023-02-17T07:44:45.194Z,3.03
2023-02-17T07:47:12.694Z,3.08
2023-02-17T07:49:40.192Z,2.53
2023-02-17T07:52:12.435Z,2.53
2023-02-17T07:54:49.773Z,3.05
2023-02-17T07:57:17.549Z,2.33
2023-02-17T07:59:46.715Z,2.53
2023-02-17T08:02:14.168Z,1.90
2023-02-17T08:04:41.758Z,2.50
2023-02-17T08:07:09.210Z,2.58
2023-02-17T08:09:54.482Z,2.28
2023-02-17T08:12:40.900Z,2.50
2023-02-17T08:15:11.003Z,2.73
2023-02-17T08:17:38.515Z,2.88
2023-02-17T08:20:09.110Z,2.85
2023-02-17T08:22:38.943Z,3.42
2023-02-17T08:25:06.938Z,3.40
2023-02-17T08:27:35.716Z,3.90
2023-02-17T08:30:03.470Z,2.88
2023-02-17T08:32:30.991Z,3.03
2023-02-17T08:34:59.192Z,2.80
2023-02-17T08:37:27.102Z,3.13
2023-02-17T08:39:54.587Z,2.87
2023-02-17T08:42:22.031Z,2.92
2023-02-17T08:44:50.871Z,3.05
2023-02-17T08:47:18.342Z,2.80
2023-02-17T08:49:45.889Z,2.00
2023-02-17T08:52:13.367Z,2.60
2023-02-17T08:54:40.797Z,1.73
2023-02-17T08:57:08.272Z,2.58
2023-02-17T08:59:35.717Z,2.42
2023-02-17T09:02:04.805Z,1.98
2023-02-17T09:04:36.376Z,2.37
2023-02-17T09:07:04.113Z,2.20
2023-02-17T09:09:32.519Z,1.85
2023-02-17T09:12:00.008Z,2.00
2023-02-17T09:14:27.857Z,1.83
2023-02-17T09:16:56.146Z,1.70
2023-02-17T09:19:25.689Z,2.17
2023-02-17T09:21:53.508Z,2.35
2023-02-17T09:24:20.958Z,2.30
2023-02-17T09:26:48.490Z,1.83
2023-02-17T09:29:15.988Z,1.90
2023-02-17T09:31:45.522Z,2.30
2023-02-17T09:34:13.086Z,1.88
2023-02-17T09:36:42.829Z,1.63
2023-02-17T09:39:13.434Z,1.42
2023-02-17T09:41:47.098Z,2.10
2023-02-17T09:44:21.456Z,1.40
2023-02-17T09:47:01.876Z,1.85
2023-02-17T09:49:36.465Z,2.05
2023-02-17T09:52:10.943Z,1.35
2023-02-17T09:54:44.927Z,1.70
2023-02-17T09:57:19.630Z,1.63
2023-02-17T09:59:51.576Z,1.70
2023-02-17T10:02:26.371Z,1.63
2023-02-17T10:04:57.544Z,1.00
2023-02-17T10:07:31.298Z,1.27
2023-02-17T10:10:06.827Z,1.30
2023-02-17T10:12:38.860Z,1.20
2023-02-17T10:15:13.448Z,1.10
2023-02-17T10:17:46.851Z,0.82
2023-02-17T10:20:19.272Z,1.00
2023-02-17T10:22:53.491Z,0.73
2023-02-17T10:25:33.069Z,0.88
2023-02-17T10:28:06.693Z,0.98
2023-02-17T10:30:40.699Z,0.90
2023-02-17T10:33:15.610Z,0.80
2023-02-17T10:35:54.107Z,0.88
2023-02-17T10:38:39.303Z,0.80
2023-02-17T10:41:10.583Z,1.05
2023-02-17T10:43:38.273Z,1.20
2023-02-17T10:46:09.256Z,0.90
2023-02-17T10:48:40.644Z,1.00
2023-02-17T10:51:08.888Z,0.70
2023-02-17T10:53:40.816Z,0.80
2023-02-17T10:56:14.242Z,0.82
2023-02-17T10:58:49.627Z,0.73
2023-02-17T11:01:18.089Z,1.00
2023-02-17T11:03:45.799Z,0.80
2023-02-17T11:06:19.779Z,0.82
2023-02-17T11:08:52.781Z,0.80
2023-02-17T11:11:22.885Z,0.80
2023-02-17T11:14:03.982Z,0.70
2023-02-17T11:16:35.646Z,0.77
2023-02-17T11:19:04.274Z,0.70
2023-02-17T11:21:33.112Z,0.70
2023-02-17T11:24:03.997Z,0.70
2023-02-17T11:26:33.480Z,0.98
2023-02-17T11:29:11.937Z,0.60
2023-02-17T11:31:39.510Z,0.65
2023-02-17T11:34:15.273Z,0.70
2023-02-17T11:36:45.570Z,0.60
2023-02-17T11:39:22.999Z,0.68
2023-02-17T11:41:51.076Z,0.52
2023-02-17T11:44:25.724Z,0.70
2023-02-17T11:47:04.735Z,0.60
2023-02-17T11:49:47.247Z,0.60
2023-02-17T11:52:30.966Z,0.60
2023-02-17T11:55:12.800Z,0.68
2023-02-17T11:57:45.476Z,0.50
2023-02-17T12:00:20.128Z,0.60
2023-02-17T12:03:10.842Z,0.63
2023-02-17T12:05:52.806Z,0.40
2023-02-17T12:08:31.082Z,0.40
2023-02-17T12:11:09.233Z,0.40
2023-02-17T12:13:56.325Z,0.50
2023-02-17T12:16:35.477Z,0.50
2023-02-17T12:19:07.251Z,0.52
2023-02-17T12:21:45.959Z,0.40
2023-02-17T12:24:29.093Z,0.35
2023-02-17T12:27:05.252Z,0.50
2023-02-17T12:29:48.605Z,0.50
2023-02-17T12:32:28.983Z,0.40
2023-02-17T12:35:01.256Z,0.60
2023-02-17T12:37:32.802Z,0.40
2023-02-17T12:40:04.054Z,0.52
2023-02-17T12:42:36.150Z,0.50
2023-02-17T12:45:06.486Z,0.40
2023-02-17T12:47:45.176Z,0.47
2023-02-17T12:50:20.239Z,0.50
2023-02-17T12:52:51.746Z,0.40
2023-02-17T12:55:22.842Z,0.50
2023-02-17T12:57:56.925Z,0.68
2023-02-17T13:00:28.794Z,0.50
2023-02-17T13:02:59.218Z,0.70
2023-02-17T13:05:29.742Z,0.63
2023-02-17T13:08:02.029Z,0.50
2023-02-17T13:10:32.807Z,0.70
2023-02-17T13:13:04.609Z,0.43
2023-02-17T13:15:35.903Z,0.50
2023-02-17T13:18:06.459Z,0.63
2023-02-17T13:20:57.251Z,0.67
2023-02-17T13:23:37.545Z,0.45
2023-02-17T13:26:24.722Z,0.43
2023-02-17T13:28:55.621Z,0.40
2023-02-17T13:31:25.238Z,0.70
2023-02-17T13:33:55.075Z,0.40
2023-02-17T13:36:35.632Z,0.50
2023-02-17T13:39:08.235Z,0.57
2023-02-17T13:41:46.387Z,0.60
2023-02-17T13:44:26.771Z,0.40
2023-02-17T13:46:57.419Z,0.60
2023-02-17T13:49:27.552Z,1.02
2023-02-17T13:51:55.232Z,0.50
2023-02-17T13:54:24.193Z,0.43
2023-02-17T13:56:52.533Z,0.70
2023-02-17T13:59:26.105Z,0.40
2023-02-17T14:01:55.133Z,0.60
2023-02-17T14:04:25.912Z,0.60
2023-02-17T14:06:56.134Z,0.40
2023-02-17T14:09:27.018Z,0.38
2023-02-17T14:11:56.709Z,0.40
2023-02-17T14:14:29.476Z,0.50
2023-02-17T14:17:00.756Z,0.80
2023-02-17T14:19:29.060Z,0.60
2023-02-17T14:22:03.917Z,0.70
2023-02-17T14:24:33.050Z,0.57
2023-02-17T14:27:02.212Z,0.70
2023-02-17T14:29:42.600Z,0.50
2023-02-17T14:32:29.298Z,0.60
2023-02-17T14:35:07.452Z,0.50
2023-02-17T14:37:36.750Z,0.40
2023-02-17T14:40:06.331Z,0.65
2023-02-17T14:42:33.942Z,0.70
2023-02-17T14:45:02.702Z,0.88
2023-02-17T14:47:30.109Z,0.60
2023-02-17T14:49:57.531Z,0.77
2023-02-17T14:52:26.379Z,0.80
2023-02-17T14:54:53.836Z,0.70
2023-02-17T14:57:27.082Z,0.93
2023-02-17T14:59:57.391Z,1.00
2023-02-17T15:02:26.149Z,0.80
2023-02-17T15:04:53.565Z,1.27
2023-02-17T15:07:21.030Z,0.77
2023-02-17T15:09:49.885Z,0.80
2023-02-17T15:12:20.300Z,1.15
2023-02-17T15:14:48.356Z,1.07
2023-02-17T15:17:16.671Z,0.98
2023-02-17T15:19:45.460Z,1.10
2023-02-17T15:22:13.502Z,0.60
2023-02-17T15:24:41.814Z,1.08
2023-02-17T15:27:14.786Z,1.50
2023-02-17T15:29:42.245Z,1.13
2023-02-17T15:32:17.918Z,1.02
2023-02-17T15:34:46.976Z,0.82
2023-02-17T15:37:14.495Z,1.17
2023-02-17T15:39:41.907Z,1.47
2023-02-17T15:42:13.957Z,1.05
2023-02-17T15:44:43.993Z,1.35
2023-02-17T15:47:15.484Z,1.30
2023-02-17T15:49:43.003Z,1.55
2023-02-17T15:52:13.470Z,1.53
2023-02-17T15:54:41.888Z,1.50
2023-02-17T15:57:17.942Z,0.95
2023-02-17T15:59:45.388Z,1.27
2023-02-17T16:02:20.842Z,1.10
2023-02-17T16:04:48.776Z,1.40
2023-02-17T16:07:17.777Z,1.08
2023-02-17T16:09:45.349Z,0.90
2023-02-17T16:12:18.471Z,1.33
2023-02-17T16:14:46.251Z,1.00
2023-02-17T16:17:15.809Z,1.40
2023-02-17T16:19:43.346Z,1.25
2023-02-17T16:22:11.000Z,1.42
2023-02-17T16:24:39.774Z,1.27
2023-02-17T16:27:08.232Z,1.70
2023-02-17T16:29:36.145Z,1.37
2023-02-17T16:32:03.826Z,1.42
2023-02-17T16:34:32.285Z,1.30
2023-02-17T16:37:03.000Z,1.70
2023-02-17T16:39:30.758Z,1.65
2023-02-17T16:41:59.501Z,1.37
2023-02-17T16:44:26.934Z,1.40
2023-02-17T16:46:56.088Z,1.60
2023-02-17T16:49:31.791Z,1.55
2023-02-17T16:51:59.400Z,1.50
2023-02-17T16:54:26.869Z,1.50
2023-02-17T16:56:54.788Z,1.40
2023-02-17T16:59:25.275Z,1.65
2023-02-17T17:01:53.975Z,1.42
2023-02-17T17:04:22.140Z,1.50
2023-02-17T17:06:51.756Z,1.93
2023-02-17T17:09:21.092Z,1.63
2023-02-17T17:11:48.622Z,2.08
2023-02-17T17:14:16.487Z,1.80
2023-02-17T17:16:51.591Z,1.50
2023-02-17T17:19:19.081Z,1.70
2023-02-17T17:21:46.566Z,1.60
2023-02-17T17:24:13.996Z,1.35
2023-02-17T17:26:45.188Z,1.40
2023-02-17T17:29:15.060Z,2.80
2023-02-17T17:31:46.954Z,1.40
2023-02-17T17:34:16.269Z,1.55
2023-02-17T17:36:45.625Z,1.20
2023-02-17T17:39:19.041Z,1.90
2023-02-17T17:41:47.104Z,2.05
2023-02-17T17:44:14.874Z,2.07
2023-02-17T17:46:44.528Z,2.63
2023-02-17T17:49:14.726Z,3.08
2023-02-17T17:51:45.035Z,2.40
2023-02-17T17:54:12.713Z,2.80
2023-02-17T17:56:42.844Z,2.50
2023-02-17T17:59:11.535Z,2.90
2023-02-17T18:01:39.170Z,2.40
2023-02-17T18:04:08.784Z,2.45
2023-02-17T18:06:40.567Z,2.40
2023-02-17T18:09:25.737Z,2.60
2023-02-17T18:12:00.100Z,2.40
2023-02-17T18:14:27.758Z,2.35
2023-02-17T18:16:59.061Z,2.05
2023-02-17T18:19:27.107Z,1.90
2023-02-17T18:22:00.691Z,1.83
2023-02-17T18:24:29.978Z,1.73
2023-02-17T18:26:57.760Z,1.73
2023-02-17T18:29:27.748Z,2.55
2023-02-17T18:31:55.540Z,1.80
2023-02-17T18:34:23.073Z,1.90
2023-02-17T18:36:50.622Z,1.77
2023-02-17T18:39:18.402Z,1.63
2023-02-17T18:41:47.346Z,1.42
2023-02-17T18:44:14.904Z,1.45
2023-02-17T18:46:42.667Z,1.40
2023-02-17T18:49:10.459Z,1.25
2023-02-17T18:51:38.203Z,1.55
2023-02-17T18:54:10.619Z,1.40
2023-02-17T18:56:41.188Z,1.20
2023-02-17T18:59:10.222Z,1.30
2023-02-17T19:01:39.364Z,1.30
2023-02-17T19:04:07.436Z,1.15
2023-02-17T19:06:35.173Z,1.10
2023-02-17T19:09:04.341Z,1.25
2023-02-17T19:11:33.004Z,1.27
2023-02-17T19:14:02.115Z,1.15
2023-02-17T19:16:33.130Z,1.33
2023-02-17T19:19:01.639Z,1.48
2023-02-17T19:21:29.362Z,1.85
2023-02-17T19:23:57.266Z,1.63
2023-02-17T19:26:26.507Z,1.15
2023-02-17T19:28:54.064Z,1.70
2023-02-17T19:31:22.328Z,1.33
2023-02-17T19:33:51.768Z,1.40
2023-02-17T19:36:21.331Z,1.20
2023-02-17T19:38:50.844Z,1.08
2023-02-17T19:41:19.865Z,0.88
2023-02-17T19:43:47.734Z,0.70
2023-02-17T19:46:18.101Z,0.85
2023-02-17T19:48:52.381Z,1.00
2023-02-17T19:51:21.196Z,0.68
2023-02-17T19:53:48.879Z,0.80
2023-02-17T19:56:19.112Z,0.80
2023-02-17T19:58:47.738Z,0.73
2023-02-17T20:01:17.912Z,0.60
2023-02-17T20:03:45.883Z,0.70
2023-02-17T20:06:17.822Z,0.30
2023-02-17T20:08:45.798Z,0.60
2023-02-17T20:11:14.740Z,0.50
2023-02-17T20:13:46.832Z,0.40
2023-02-17T20:16:16.948Z,0.50
2023-02-17T20:18:46.511Z,0.50
2023-02-17T20:21:17.370Z,0.30
2023-02-17T20:23:45.278Z,0.50
2023-02-17T20:26:14.942Z,0.70
2023-02-17T20:28:45.460Z,0.60
2023-02-17T20:31:13.380Z,0.50
2023-02-17T20:33:41.264Z,0.60
2023-02-17T20:36:10.111Z,0.50
2023-02-17T20:38:39.535Z,0.40
2023-02-17T20:41:08.510Z,0.43
2023-02-17T20:43:37.647Z,0.98
2023-02-17T20:46:05.648Z,0.52
2023-02-17T20:48:36.152Z,0.70
2023-02-17T20:51:05.630Z,0.50
2023-02-17T20:53:33.581Z,0.80
2023-02-17T20:56:02.664Z,0.50
2023-02-17T20:58:30.314Z,0.68
2023-02-17T21:00:57.812Z,0.77
2023-02-17T21:03:25.430Z,0.63
2023-02-17T21:05:53.093Z,0.60
2023-02-17T21:08:20.859Z,0.50
2023-02-17T21:10:48.896Z,0.80
2023-02-17T21:13:17.833Z,0.68
2023-02-17T21:15:48.775Z,0.60
2023-02-17T21:18:16.714Z,0.60
2023-02-17T21:20:44.312Z,0.50
2023-02-17T21:23:12.004Z,0.52
2023-02-17T21:25:39.589Z,0.60
2023-02-17T21:28:07.198Z,0.55
2023-02-17T21:30:38.099Z,0.65
2023-02-17T21:33:06.310Z,0.68
2023-02-17T21:35:33.962Z,0.80
2023-02-17T21:38:02.591Z,0.63
2023-02-17T21:40:30.375Z,0.70
2023-02-17T21:43:15.395Z,0.50
2023-02-17T21:45:45.583Z,0.80
2023-02-17T21:48:13.459Z,0.50
2023-02-17T21:50:41.210Z,0.50
2023-02-17T21:53:11.955Z,0.70
2023-02-17T21:55:48.389Z,0.80
2023-02-17T21:58:15.892Z,0.80
2023-02-17T22:00:44.914Z,0.60
2023-02-17T22:03:15.595Z,0.70
2023-02-17T22:05:43.137Z,0.70
2023-02-17T22:08:10.667Z,0.70
2023-02-17T22:10:38.440Z,0.70
2023-02-17T22:13:07.044Z,0.90
2023-02-17T22:15:35.596Z,0.68
2023-02-17T22:18:05.275Z,0.73
2023-02-17T22:20:33.005Z,0.80
2023-02-17T22:23:01.767Z,0.80
2023-02-17T22:25:31.132Z,0.70
2023-02-17T22:27:59.001Z,0.63
2023-02-17T22:30:27.762Z,0.77
2023-02-17T22:32:55.707Z,1.10
2023-02-17T22:35:25.132Z,0.80
2023-02-17T22:37:52.832Z,0.80
2023-02-17T22:40:23.256Z,0.60
2023-02-17T22:42:50.846Z,0.80
2023-02-17T22:45:18.896Z,0.65
2023-02-17T22:47:46.434Z,0.50
2023-02-17T22:50:13.911Z,0.80
2023-02-17T22:52:42.714Z,0.70
2023-02-17T22:55:10.261Z,0.45
2023-02-17T22:57:37.717Z,0.60
2023-02-17T23:00:06.401Z,0.90
2023-02-17T23:02:35.984Z,0.68
2023-02-17T23:05:03.946Z,0.50
2023-02-17T23:07:31.455Z,0.80
2023-02-17T23:10:00.248Z,0.73
2023-02-17T23:12:27.748Z,0.43
2023-02-17T23:14:55.253Z,0.70
2023-02-17T23:17:22.987Z,0.82
2023-02-17T23:19:50.699Z,0.73
2023-02-17T23:22:19.015Z,0.65
2023-02-17T23:24:48.205Z,1.10
2023-02-17T23:27:17.207Z,0.90
2023-02-17T23:29:44.676Z,0.68
2023-02-17T23:32:12.226Z,0.65
2023-02-17T23:34:40.218Z,0.63
2023-02-17T23:37:07.679Z,0.80
2023-02-17T23:39:37.648Z,0.70
2023-02-17T23:42:05.272Z,1.00
2023-02-17T23:44:34.064Z,0.88
2023-02-17T23:47:01.505Z,0.75
2023-02-17T23:49:28.965Z,0.55
2023-02-17T23:51:56.441Z,0.70
2023-02-17T23:54:24.896Z,0.47
2023-02-17T23:56:52.368Z,0.70
2023-02-17T23:59:19.873Z,0.50
